Terminal Aerodrome Forecast
Issued by NWS Cleveland, OH

Home | Current Version | Previous Version | Text Only | Print | Product List | Glossary Off
Versions: 1 2 3 4 5 6 7 8 9 10 11 12 13 14

000
FTUS41 KCLE 250539
TAFMFD
TAF
KMFD 250539Z 2506/2606 22006KT P6SM SKC
     FM250900 29006KT P6SM SCT040 BKN060
     FM251500 27010KT P6SM BKN035
     FM251800 27010KT P6SM BKN050
     FM252300 25006KT P6SM BKN060=

USA.gov is the U.S. government's official web portal to all federal, state and local government web resources and services.